Aérodrome :
LOGIN :

S'inscrire | Disclaimer

   EN    FR    IT 

 










Légende :    VFR   VFR Marginal   IFR   IFR Intensif   IFR Très Intensif
Visi : 
Plafond : 
>= 8 km
>= 3000ft
5 à 8 km
1000 à 3000 ft
1500m à 5 km
500 à 1000 ft
800 à 1500m
200 à 500 ft
< 800m
< 200 ft
Symboles :   Orages  Brouillard  Fortes neiges  Fortes précipitations  Vent > 20 kt
SIGMETs :   Divers  Orages  Givrage  Turbulence  Onde Orograph.  Cendres Volcan.







- Altitude de l'aérodrome : 39 ft
- Code IATA : ANR


EBAW - Anvers / Antwerpen Deurne

DERNIER METAR :
  • 220550Z 26016KT 220V280 9999 -RA BKN014 10/09 Q1009 REDZ TEMPO 25016G28KT

METARs EXPIRÉS :
  • 220520Z AUTO 25015KT 220V280 8000 -RA OVC013/// 10/08 Q1009
  • 220450Z AUTO 25015G26KT 210V270 6000 -RA SCT003/// OVC012/// 10/08 Q1009
  • 220420Z AUTO 24014KT 9999 // OVC011/// 10/08 Q1009
  • 220350Z AUTO 24016KT 9999 // OVC010/// 10/08 Q1009
  • 220320Z AUTO 24015KT 9999 // OVC010/// 10/08 Q1010

TAF TAF EBAW
Valide du 22 à 06h jusqu'au 22 à 15h UTC


220510Z 2206/2215 24016G28KT 9999 SCT008 BKN012
PROB30
TEMPO 2206/2215 2500 DZ DZRA BKN007
Pas de NOTAMs connus pour ce terrain.
1 SIGMET publié pour la FIR Brussels (EBBU) :
 
Turbulence forte
EBBU SIGMET 01 VALID 220400/220700 EBBR
EBBU BRUSSELS FIR SEV TURB FCST W OF LINE N5115 E00400 - N5045 E00330 SFC/FL050 MOV E15KT WKN=



MET'MAP, la Météo Aéronautique d'un coup d'oeil ! - Copyright ORBIFLY Décembre 2007 - Disclaimer

ORBIFLY MET'MAP TEAM :

Programmation & Développement : Alexandra Zaïnal
Conception & Développement : Baudouin d'Aumeries
Co-Programmation & Développement : Marc-Olivier Méhu
Soutien technique & logistique : Manuel Goepfert

Contact : metmap@orbifly.com




SOURCES & CREDITS :

   NOAA